クアラルンプール国際空港の過去48時間の天気

クアラルンプール国際空港 (Sepang/KL International Airport)

現在時刻: 7/17 16:21 +08 (7/17 08:21 UTC) 以下の時間は現地時間です。

過去48時間のMETAR気象情報
時間 風向 風速(m/s) 視程 気温(℃) 湿度(%) 気圧(hPa) 天気現象
17 16:00 南南東 4 10km以上 31 59 1005
17 15:30 南南東 4 10km以上 32 59 1006
17 15:00 5 10km以上 32 59 1006
17 14:30 4 10km以上 31 66 1006
17 14:00 4 10km以上 31 66 1007
17 13:30 南南東 4 10km以上 31 66 1007
17 13:00 南南東 4 10km以上 31 70 1008
17 12:30 南南東 4 9000m 30 75 1008
17 12:00 南南東 4 9000m 29 79 1009
17 11:30 3 9000m 29 84 1009
17 11:00 南東 3 10km以上 28 84 1009
17 10:30 南南東 2 9000m 27 89 1010 弱い雨
17 10:00 不定 1 9000m 26 94 1009 弱い雷雨
17 09:30 不定 2 9000m 26 94 1010 弱い雷雨
17 09:00 南南東 3 10km以上 26 89 1010
17 08:30 南東 2 10km以上 26 89 1009
17 08:00 不定 1 9000m 25 94 1008
17 07:30 不定 2 8000m 25 89 1008
17 07:00 不定 1 8000m 25 89 1008
17 06:30 不定 2 8000m 25 94 1008
17 06:00 北東 2 8000m 25 94 1008
17 05:30 不定 1 8000m 25 89 1008
17 05:00 静穏 0 8000m 25 89 1008
17 04:30 不定 1 8000m 25 94 1008
17 04:00 静穏 0 8000m 26 89 1008
17 03:30 東南東 2 8000m 26 89 1008
17 03:00 北東 2 8000m 26 89 1008
17 02:30 東北東 2 7000m 26 94 1009
17 02:00 北東 2 8000m 26 94 1009
17 01:30 不定 2 9000m 26 94 1009
17 01:00 北北東 2 8000m 27 89 1010
17 00:30 不定 2 8000m 27 89 1010
17 00:00 2 8000m 27 89 1010
16 23:30 北北東 2 8000m 27 89 1010
16 23:00 静穏 0 8000m 27 89 1010
16 22:30 不定 2 8000m 27 84 1009
16 22:00 不定 1 9000m 28 84 1009
16 21:30 2 9000m 28 84 1009
16 21:00 東南東 2 10km以上 28 79 1008
16 20:30 南東 2 10km以上 28 79 1007
16 20:00 不定 1 10km以上 28 84 1008
16 19:30 静穏 0 10km以上 29 79 1008
16 19:00 不定 1 10km以上 29 79 1007
16 18:30 不定 1 10km以上 29 79 1007
16 18:00 南南東 3 10km以上 30 70 1007
16 17:30 南南東 2 10km以上 30 70 1007
16 17:00 3 10km以上 30 70 1007
16 16:30 3 10km以上 30 75 1007
16 16:00 南南東 2 10km以上 30 75 1007
16 15:30 南南東 4 9000m 30 70 1007
16 15:00 南南東 3 10km以上 30 75 1008
16 14:30 4 9000m 30 70 1008
16 14:00 南南東 4 9000m 30 70 1009
16 13:30 南南東 4 10km以上 30 70 1010
16 13:00 南南東 3 10km以上 29 74 1010
16 12:30 4 10km以上 30 75 1010
16 12:00 4 10km以上 30 70 1010
16 11:30 南南東 3 9000m 29 79 1011
16 11:00 南南東 5 8000m 29 79 1010 雷 周辺でしゅう雨
16 10:30 南南東 4 10km以上 29 79 1011 弱い雷雨
16 10:00 南南東 4 8000m 29 79 1011 雷 周辺でしゅう雨
16 09:30 南東 4 8000m 28 84 1010 雷 周辺でしゅう雨
16 09:00 南東 3 10km以上 28 84 1010
16 08:30 東南東 3 9000m 27 89 1010
16 08:00 不定 1 9000m 26 94 1010
16 07:30 不定 1 9000m 25 94 1009
16 07:00 不定 1 8000m 25 94 1009
16 06:30 不定 2 8000m 25 94 1009
16 06:00 南東 3 8000m 25 94 1008
16 05:30 南東 2 8000m 25 94 1008
16 05:00 南東 2 8000m 26 89 1008
16 04:30 南東 2 8000m 26 89 1008
16 04:00 不定 1 8000m 26 89 1009
16 03:30 南東 2 8000m 26 89 1009
16 03:00 不定 1 8000m 26 89 1009
16 02:30 不定 1 8000m 26 89 1009
16 02:00 南東 2 8000m 26 89 1009
16 01:30 南東 2 8000m 26 89 1010
16 01:00 不定 1 8000m 26 94 1010
16 00:30 不定 1 8000m 26 94 1010
16 00:00 不定 1 8000m 26 94 1010
15 23:30 不定 1 8000m 26 94 1010
15 23:00 不定 1 8000m 26 94 1010
15 22:30 南南東 2 8000m 26 94 1009
15 22:00 南南東 2 9000m 27 89 1009
15 21:30 南南東 2 10km以上 27 89 1008
15 21:00 不定 1 10km以上 27 89 1008
15 20:30 静穏 0 10km以上 27 89 1008
15 20:00 不定 1 10km以上 27 89 1007
15 19:30 不定 1 10km以上 28 84 1007
15 19:00 2 10km以上 28 84 1007
15 18:30 2 10km以上 29 79 1007
15 18:00 不定 2 10km以上 29 79 1007
15 17:30 3 10km以上 30 75 1007
15 17:00 3 10km以上 30 75 1007
15 16:30 西南西 2 10km以上 31 70 1007
WMKK 170800Z 16008KT 110V210 9999 SCT018 SCT140 BKN280 31/22 Q1005 NOSIG
WMKK 170730Z 16008KT 080V230 9999 SCT018 SCT140 BKN280 32/23 Q1006 NOSIG
WMKK 170700Z 17009KT 100V230 9999 SCT018 SCT140 BKN280 32/23 Q1006 NOSIG
WMKK 170630Z 17007KT 070V240 9999 SCT018 BKN140 BKN280 31/24 Q1006 NOSIG
WMKK 170600Z 17008KT 100V230 9999 SCT018 BKN140 BKN280 31/24 Q1007 NOSIG
WMKK 170530Z 16008KT 100V230 9999 SCT018 SCT140 BKN280 31/24 Q1007 NOSIG
WMKK 170500Z 16007KT 070V210 9999 SCT018 BKN140 BKN280 31/25 Q1008 NOSIG
WMKK 170430Z 15007KT 090V210 9000 SCT018 BKN140 BKN280 30/25 Q1008 NOSIG
WMKK 170400Z 15007KT 100V200 9000 FEW018 BKN140 BKN280 29/25 Q1009 NOSIG
WMKK 170330Z VRB06KT 9000 FEW017CB BKN140 BKN280 29/26 Q1009 NOSIG
WMKK 170300Z 13006KT 080V170 9999 FEW017CB SCT140 BKN280 28/25 Q1009 NOSIG
WMKK 170230Z 15003KT 100V200 9000 -RA FEW017CB SCT140 BKN270 27/25 Q1010 RETSRA BECMG NSW
WMKK 170200Z VRB02KT 9000 -TSRA FEW017CB SCT140 BKN270 26/25 Q1009 BECMG NSW
WMKK 170130Z VRB03KT 9000 -TSRA FEW017CB SCT140 BKN270 26/25 Q1010 NOSIG
WMKK 170100Z 15006KT 100V210 9999 TS FEW017CB SCT030 BKN270 26/24 Q1010 NOSIG
WMKK 170030Z 13004KT 090V200 9999 TS FEW017CB SCT030 BKN140 26/24 Q1009 NOSIG
WMKK 170000Z VRB02KT 9000 FEW017CB BKN140 BKN280 25/24 Q1008 NOSIG
WMKK 162330Z VRB03KT 8000 FEW030 BKN140 BKN280 25/23 Q1008 NOSIG
WMKK 162300Z VRB02KT 8000 FEW030 BKN140 BKN280 25/23 Q1008 RETS NOSIG
WMKK 162230Z VRB03KT 8000 TS FEW017CB BKN140 BKN280 25/24 Q1008 NOSIG
WMKK 162200Z 05003KT 360V110 8000 TS FEW017CB BKN140 BKN280 25/24 Q1008 NOSIG
WMKK 162130Z VRB02KT 8000 FEW017CB BKN140 BKN280 25/23 Q1008 NOSIG
WMKK 162100Z 00000KT 8000 FEW017CB BKN140 BKN280 25/23 Q1008 RETS NOSIG
WMKK 162030Z VRB02KT 8000 TS FEW017CB BKN140 BKN280 25/24 Q1008 NOSIG
WMKK 162000Z 00000KT 8000 TS FEW017CB BKN140 BKN280 26/24 Q1008 NOSIG
WMKK 161930Z 11003KT 050V160 8000 TS FEW017CB BKN140 BKN280 26/24 Q1008 NOSIG
WMKK 161900Z 05004KT 020V100 8000 TS FEW017CB BKN140 BKN280 26/24 Q1008 NOSIG
WMKK 161830Z 06003KT 010V100 7000 TS FEW017CB BKN140 BKN280 26/25 Q1009 NOSIG
WMKK 161800Z 04004KT 360V060 8000 TS FEW017CB BKN140 BKN280 26/25 Q1009 NOSIG
WMKK 161730Z VRB03KT 9000 TS FEW017CB BKN140 BKN280 26/25 Q1009 NOSIG
WMKK 161700Z 02004KT 350V050 8000 FEW017CB BKN140 BKN280 27/25 Q1010 NOSIG
WMKK 161630Z VRB03KT 8000 FEW017CB BKN140 BKN280 27/25 Q1010 NOSIG
WMKK 161600Z 01003KT 330V050 8000 FEW030 BKN140 BKN280 27/25 Q1010 NOSIG
WMKK 161530Z 03003KT 350V060 8000 FEW030 BKN140 BKN280 27/25 Q1010 NOSIG
WMKK 161500Z 00000KT 8000 FEW030 BKN140 BKN280 27/25 Q1010 NOSIG
WMKK 161430Z VRB03KT 8000 FEW030 BKN140 BKN280 27/24 Q1009 NOSIG
WMKK 161400Z VRB02KT 9000 FEW030 BKN140 BKN280 28/25 Q1009 NOSIG
WMKK 161330Z 08003KT 030V150 9000 FEW030 BKN140 BKN280 28/25 Q1009 NOSIG
WMKK 161300Z 12003KT 050V160 9999 FEW030 BKN140 BKN280 28/24 Q1008 NOSIG
WMKK 161230Z 13003KT 080V160 9999 FEW030 BKN140 BKN280 28/24 Q1007 NOSIG
WMKK 161200Z VRB02KT 9999 FEW030 BKN140 BKN280 28/25 Q1008 NOSIG
WMKK 161130Z 00000KT 9999 FEW017CB BKN140 29/25 Q1008 NOSIG
WMKK 161100Z VRB02KT 9999 FEW017CB BKN140 BKN280 29/25 Q1007 NOSIG
WMKK 161030Z VRB02KT 9999 FEW017CB SCT140 BKN280 29/25 Q1007 NOSIG
WMKK 161000Z 16005KT 120V220 9999 FEW018 SCT140 BKN280 30/24 Q1007 NOSIG
WMKK 160930Z 16003KT 100V230 9999 FEW018 SCT140 BKN280 30/24 Q1007 NOSIG
WMKK 160900Z 17006KT 100V230 9999 FEW018 SCT140 BKN280 30/24 Q1007 NOSIG
WMKK 160830Z 17005KT 110V240 9999 FEW018 SCT140 BKN280 30/25 Q1007 NOSIG
WMKK 160800Z 16004KT 100V230 9999 FEW018 SCT140 BKN280 30/25 Q1007 NOSIG
WMKK 160730Z 15007KT 100V230 9000 FEW018 SCT140 BKN280 30/24 Q1007 NOSIG
WMKK 160700Z 16005KT 080V220 9999 FEW018 SCT140 BKN280 30/25 Q1008 NOSIG
WMKK 160630Z 18007KT 130V250 9000 FEW018 SCT140 BKN280 30/24 Q1008 NOSIG
WMKK 160600Z 16008KT 110V240 9000 FEW018 SCT140 BKN280 30/24 Q1009 NOSIG
WMKK 160530Z 16008KT 110V240 9999 FEW018 SCT140 BKN280 30/24 Q1010 NOSIG
WMKK 160500Z 16006KT 110V220 9999 FEW018 SCT140 BKN280 29/24 Q1010 RETS NOSIG
WMKK 160430Z 17007KT 080V240 9999 FEW017CB SCT140 BKN280 30/25 Q1010 RETS NOSIG
WMKK 160400Z 17007KT 140V230 9999 TS FEW017CB SCT140 BKN280 30/24 Q1010 NOSIG
WMKK 160330Z 16006KT 080V250 9000 TS FEW017CB SCT018 BKN280 29/25 Q1011 NOSIG
WMKK 160300Z 15009KT 090V210 8000 TS VCSH FEW017CB SCT018 BKN270 29/25 Q1010 NOSIG
WMKK 160230Z 15007KT 080V230 9999 -TSRA FEW017CB SCT028 BKN270 29/25 Q1011 NOSIG
WMKK 160200Z 15008KT 100V200 8000 TS VCSH FEW017CB SCT140 BKN280 29/25 Q1011 NOSIG
WMKK 160130Z 14008KT 100V170 8000 TS VCSH FEW017CB SCT140 BKN280 28/25 Q1010 NOSIG
WMKK 160100Z 13005KT 080V170 9999 TS FEW017CB SCT140 BKN280 28/25 Q1010 NOSIG
WMKK 160030Z 12005KT 070V170 9000 TS FEW017CB SCT140 BKN280 27/25 Q1010 NOSIG
WMKK 160000Z VRB02KT 9000 TS FEW017CB SCT140 BKN280 26/25 Q1010 NOSIG
WMKK 152330Z VRB02KT 9000 TS FEW017CB SCT140 BKN280 25/24 Q1009 NOSIG
WMKK 152300Z VRB01KT 8000 TS FEW017CB SCT140 BKN280 25/24 Q1009 NOSIG
WMKK 152230Z VRB03KT 8000 FEW017CB SCT140 BKN280 25/24 Q1009 NOSIG
WMKK 152200Z 13005KT 080V170 8000 FEW017CB SCT140 BKN280 25/24 Q1008 NOSIG
WMKK 152130Z 14004KT 100V200 8000 FEW017CB SCT140 BKN280 25/24 Q1008 NOSIG
WMKK 152100Z 14004KT 100V170 8000 FEW017CB SCT140 BKN280 26/24 Q1008 NOSIG
WMKK 152030Z 14003KT 110V190 8000 FEW017CB SCT140 BKN280 26/24 Q1008 NOSIG
WMKK 152000Z VRB02KT 8000 FEW017CB SCT140 BKN280 26/24 Q1009 NOSIG
WMKK 151930Z 14003KT 110V170 8000 FEW017CB SCT140 BKN280 26/24 Q1009 NOSIG
WMKK 151900Z VRB02KT 8000 FEW017CB SCT140 BKN280 26/24 Q1009 NOSIG
WMKK 151830Z VRB02KT 8000 FEW030 SCT140 BKN280 26/24 Q1009 NOSIG
WMKK 151800Z 14003KT 100V170 8000 FEW030 SCT140 BKN280 26/24 Q1009 NOSIG
WMKK 151730Z 14003KT 8000 FEW030 SCT140 BKN280 26/24 Q1010 NOSIG
WMKK 151700Z VRB02KT 8000 FEW030 SCT140 BKN280 26/25 Q1010 NOSIG
WMKK 151630Z VRB02KT 8000 FEW030 SCT140 BKN280 26/25 Q1010 NOSIG
WMKK 151600Z VRB02KT 8000 FEW030 SCT140 BKN280 26/25 Q1010 NOSIG
WMKK 151530Z VRB02KT 8000 FEW030 SCT140 BKN280 26/25 Q1010 NOSIG
WMKK 151500Z VRB02KT 8000 FEW030 SCT140 BKN280 26/25 Q1010 NOSIG
WMKK 151430Z 15004KT 110V190 8000 FEW030 SCT140 BKN280 26/25 Q1009 NOSIG
WMKK 151400Z 15003KT 120V190 9000 FEW030 SCT140 BKN280 27/25 Q1009 NOSIG
WMKK 151330Z 15003KT 100V210 9999 FEW030 SCT140 BKN280 27/25 Q1008 NOSIG
WMKK 151300Z VRB02KT 9999 FEW030 SCT140 BKN280 27/25 Q1008 NOSIG
WMKK 151230Z 00000KT 9999 FEW030 SCT140 BKN280 27/25 Q1008 NOSIG
WMKK 151200Z VRB02KT 9999 FEW030 SCT140 BKN280 27/25 Q1007 NOSIG
WMKK 151130Z VRB02KT 9999 FEW018 SCT140 BKN280 28/25 Q1007 NOSIG
WMKK 151100Z 19003KT 130V260 9999 FEW018 SCT140 BKN280 28/25 Q1007 NOSIG
WMKK 151030Z 19004KT 140V250 9999 FEW018 SCT140 BKN280 29/25 Q1007 NOSIG
WMKK 151000Z VRB03KT 9999 FEW018 SCT140 BKN280 29/25 Q1007 NOSIG
WMKK 150930Z VRB05KT 9999 FEW017CB SCT140 BKN280 30/25 Q1007 NOSIG
WMKK 150900Z VRB06KT 9999 FEW017CB SCT140 BKN280 30/25 Q1007 NOSIG
WMKK 150830Z 24004KT 150V300 9999 FEW018 SCT140 BKN280 31/25 Q1007 NOSIG